Time,TemperatureF,DewpointF,PressureIn,WindDirection,WindDirectionDegrees,WindSpeedMPH,WindSpeedGustMPH,Humidity,HourlyPrecipIn,Conditions,Clouds,dailyrainin,SoftwareType,DateUTC
2013-04-17 00:02:00,59.0,-99.9,30.17,NNW,348,9.0,11.0,-999,-99.99,,,-99.99,,2013-04-17 07:02:00,
2013-04-17 00:12:00,58.0,-99.9,30.18,North,352,8.0,11.0,-999,-99.99,,,-99.99,,2013-04-17 07:12:00,
2013-04-17 00:22:00,-999.0,-99.9,30.18,North,349,9.0,10.0,-999,-99.99,,,-99.99,,2013-04-17 07:22:00,
2013-04-17 00:32:00,-999.0,-99.9,30.18,North,358,7.0,8.0,-999,-99.99,,,-99.99,,2013-04-17 07:32:00,
2013-04-17 00:42:00,-999.0,-99.9,30.18,North,352,7.0,10.0,-999,-99.99,,,-99.99,,2013-04-17 07:42:00,
2013-04-17 01:02:00,-999.0,-99.9,30.19,North,4,7.0,10.0,-999,-99.99,,,-99.99,,2013-04-17 08:02:00,
2013-04-17 01:12:00,58.0,-99.9,30.19,North,356,11.0,15.0,-999,-99.99,,,-99.99,,2013-04-17 08:12:00,
2013-04-17 01:22:00,-999.0,-99.9,30.19,North,350,13.0,15.0,-999,-99.99,,,-99.99,,2013-04-17 08:22:00,
2013-04-17 01:33:00,58.0,-99.9,30.19,NNW,345,11.0,13.0,-999,-99.99,,,-99.99,,2013-04-17 08:33:00,
2013-04-17 01:42:00,-999.0,-99.9,30.19,NNW,345,11.0,12.0,-999,-99.99,,,-99.99,,2013-04-17 08:42:00,
2013-04-17 01:52:00,-999.0,-99.9,30.20,NNW,345,10.0,12.0,-999,-99.99,,,-99.99,,2013-04-17 08:52:00,
2013-04-17 02:02:00,-999.0,-99.9,30.20,North,356,8.0,12.0,-999,-99.99,,,-99.99,,2013-04-17 09:02:00,
2013-04-17 02:12:00,58.0,-99.9,30.20,North,356,15.0,21.0,-999,-99.99,,,-99.99,,2013-04-17 09:12:00,
2013-04-17 02:22:00,59.0,-99.9,30.19,North,357,18.0,25.0,-999,-99.99,,,-99.99,,2013-04-17 09:22:00,
2013-04-17 02:33:00,58.0,-99.9,30.19,North,359,19.0,26.0,-999,-99.99,,,-99.99,,2013-04-17 09:33:00,
2013-04-17 02:43:00,58.0,-99.9,30.20,North,356,15.0,18.0,-999,-99.99,,,-99.99,,2013-04-17 09:43:00,
2013-04-17 02:53:00,58.0,-99.9,30.20,North,-999,17.0,19.0,-999,-99.99,,,-99.99,,2013-04-17 09:53:00,
2013-04-17 03:03:00,-999.0,-99.9,30.20,North,352,13.0,17.0,-999,-99.99,,,-99.99,,2013-04-17 10:03:00,
2013-04-17 03:12:00,58.0,-99.9,30.20,North,349,12.0,17.0,-999,-99.99,,,-99.99,,2013-04-17 10:12:00,
2013-04-17 03:23:00,58.0,-99.9,30.20,NNW,346,11.0,14.0,-999,-99.99,,,-99.99,,2013-04-17 10:23:00,
2013-04-17 03:33:00,58.0,-99.9,30.20,NNW,348,12.0,16.0,-999,-99.99,,,-99.99,,2013-04-17 10:33:00,
2013-04-17 03:43:00,57.0,-99.9,30.20,NNW,347,11.0,13.0,-999,-99.99,,,-99.99,,2013-04-17 10:43:00,
2013-04-17 03:53:00,57.0,-99.9,30.20,North,349,11.0,14.0,-999,-99.99,,,-99.99,,2013-04-17 10:53:00,
2013-04-17 04:02:00,57.0,-99.9,30.20,NNW,348,8.0,12.0,-999,-99.99,,,-99.99,,2013-04-17 11:02:00,
2013-04-17 04:12:00,57.0,-99.9,30.20,NNW,348,10.0,12.0,-999,-99.99,,,-99.99,,2013-04-17 11:12:00,
2013-04-17 04:22:00,57.0,-99.9,30.20,North,349,11.0,13.0,-999,-99.99,,,-99.99,,2013-04-17 11:22:00,
2013-04-17 04:32:00,57.0,-99.9,30.20,North,354,11.0,14.0,-999,-99.99,,,-99.99,,2013-04-17 11:32:00,
2013-04-17 04:42:00,57.0,-99.9,30.20,NNW,348,13.0,15.0,-999,-99.99,,,-99.99,,2013-04-17 11:42:00,
2013-04-17 04:52:00,-999.0,-99.9,30.20,NNW,347,12.0,16.0,-999,-99.99,,,-99.99,,2013-04-17 11:52:00,
2013-04-17 05:03:00,57.0,-99.9,30.20,NNW,340,11.0,14.0,-999,-99.99,,,-99.99,,2013-04-17 12:03:00,
2013-04-17 05:12:00,57.0,-99.9,30.20,North,349,11.0,14.0,-999,-99.99,,,-99.99,,2013-04-17 12:12:00,
2013-04-17 05:22:00,57.0,-99.9,30.21,NNW,348,12.0,15.0,-999,-99.99,,,-99.99,,2013-04-17 12:22:00,
2013-04-17 05:32:00,56.0,-99.9,30.21,NNW,347,13.0,15.0,-999,-99.99,,,-99.99,,2013-04-17 12:32:00,
2013-04-17 05:42:00,56.0,-99.9,30.21,NNW,346,12.0,14.0,-999,-99.99,,,-99.99,,2013-04-17 12:42:00,
2013-04-17 05:52:00,56.0,-99.9,30.22,North,354,12.0,14.0,-999,-99.99,,,-99.99,,2013-04-17 12:52:00,
2013-04-17 06:02:00,56.0,-99.9,30.22,North,349,11.0,14.0,-999,-99.99,,,-99.99,,2013-04-17 13:02:00,
2013-04-17 06:12:00,56.0,-99.9,30.22,North,350,12.0,14.0,-999,-99.99,,,-99.99,,2013-04-17 13:12:00,
2013-04-17 06:22:00,56.0,-99.9,30.23,North,357,11.0,13.0,-999,-99.99,,,-99.99,,2013-04-17 13:22:00,
2013-04-17 06:32:00,56.0,-99.9,30.23,North,353,10.0,12.0,-999,-99.99,,,-99.99,,2013-04-17 13:32:00,
2013-04-17 06:42:00,-999.0,-99.9,30.23,North,352,10.0,12.0,-999,-99.99,,,-99.99,,2013-04-17 13:42:00,
2013-04-17 06:52:00,56.0,-99.9,30.23,North,-999,-999.0,-999.0,-999,-99.99,,,-99.99,,2013-04-17 13:52:00,
2013-04-17 07:02:00,56.0,-99.9,30.24,North,1,12.0,15.0,-999,-99.99,,,-99.99,,2013-04-17 14:02:00,
2013-04-17 07:12:00,56.0,-99.9,30.24,North,357,9.0,14.0,-999,-99.99,,,-99.99,,2013-04-17 14:12:00,
2013-04-17 07:22:00,56.0,-99.9,30.24,North,357,9.0,14.0,-999,-99.99,,,-99.99,,2013-04-17 14:22:00,
2013-04-17 07:32:00,56.0,-99.9,30.24,North,356,10.0,12.0,-999,-99.99,,,-99.99,,2013-04-17 14:32:00,
2013-04-17 07:43:00,56.0,-99.9,30.25,North,359,11.0,13.0,-999,-99.99,,,-99.99,,2013-04-17 14:43:00,
2013-04-17 07:52:00,56.0,-99.9,30.26,North,4,10.0,12.0,-999,-99.99,,,-99.99,,2013-04-17 14:52:00,
2013-04-17 08:02:00,56.0,-99.9,30.26,North,352,13.0,14.0,-999,-99.99,,,-99.99,,2013-04-17 15:02:00,
2013-04-17 08:12:00,56.0,-99.9,30.27,North,359,13.0,15.0,-999,-99.99,,,-99.99,,2013-04-17 15:12:00,
2013-04-17 08:22:00,56.0,-99.9,30.27,North,-999,-999.0,-999.0,-999,-99.99,,,-99.99,,2013-04-17 15:22:00,
2013-04-17 08:33:00,-999.0,-99.9,30.27,North,355,12.0,14.0,-999,-99.99,,,-99.99,,2013-04-17 15:33:00,
2013-04-17 08:43:00,57.0,-99.9,30.28,North,360,12.0,14.0,-999,-99.99,,,-99.99,,2013-04-17 15:43:00,
2013-04-17 08:53:00,57.0,-99.9,30.28,North,-999,13.0,18.0,-999,-99.99,,,-99.99,,2013-04-17 15:53:00,
2013-04-17 09:03:00,-999.0,-99.9,30.28,North,6,14.0,17.0,-999,-99.99,,,-99.99,,2013-04-17 16:03:00,
2013-04-17 09:13:00,57.0,-99.9,30.28,NNE,13,14.0,17.0,-999,-99.99,,,-99.99,,2013-04-17 16:13:00,
2013-04-17 09:23:00,57.0,-99.9,30.29,North,-999,-999.0,-999.0,-999,-99.99,,,-99.99,,2013-04-17 16:23:00,
2013-04-17 09:32:00,57.0,-99.9,30.29,North,2,15.0,17.0,-999,-99.99,,,-99.99,,2013-04-17 16:32:00,
2013-04-17 09:42:00,-999.0,-99.9,30.29,North,2,17.0,21.0,-999,-99.99,,,-99.99,,2013-04-17 16:42:00,
2013-04-17 09:52:00,57.0,-99.9,30.29,North,3,17.0,20.0,-999,-99.99,,,-99.99,,2013-04-17 16:52:00,
2013-04-17 10:02:00,57.0,-99.9,30.29,North,4,16.0,19.0,-999,-99.99,,,-99.99,,2013-04-17 17:02:00,
2013-04-17 10:13:00,57.0,-99.9,30.29,North,-999,-999.0,-999.0,-999,-99.99,,,-99.99,,2013-04-17 17:13:00,
2013-04-17 10:22:00,57.0,-99.9,30.29,NNE,12,11.0,15.0,-999,-99.99,,,-99.99,,2013-04-17 17:22:00,
2013-04-17 10:33:00,58.0,-99.9,30.29,NNE,14,11.0,22.0,-999,-99.99,,,-99.99,,2013-04-17 17:33:00,
2013-04-17 10:42:00,58.0,-99.9,30.29,NNE,13,12.0,15.0,-999,-99.99,,,-99.99,,2013-04-17 17:42:00,
2013-04-17 10:52:00,58.0,-99.9,30.30,NNE,12,11.0,17.0,-999,-99.99,,,-99.99,,2013-04-17 17:52:00,
2013-04-17 11:02:00,58.0,-99.9,30.30,NE,35,9.0,19.0,-999,-99.99,,,-99.99,,2013-04-17 18:02:00,
2013-04-17 11:12:00,58.0,-99.9,30.30,North,-999,-999.0,-999.0,-999,-99.99,,,-99.99,,2013-04-17 18:12:00,
2013-04-17 11:22:00,59.0,-99.9,30.29,NNE,15,12.0,16.0,-999,-99.99,,,-99.99,,2013-04-17 18:22:00,
2013-04-17 11:33:00,59.0,-99.9,30.29,North,359,16.0,19.0,-999,-99.99,,,-99.99,,2013-04-17 18:33:00,
2013-04-17 11:42:00,-999.0,-99.9,30.30,North,354,13.0,16.0,-999,-99.99,,,-99.99,,2013-04-17 18:42:00,
2013-04-17 11:52:00,-999.0,-99.9,30.30,North,2,11.0,17.0,-999,-99.99,,,-99.99,,2013-04-17 18:52:00,
2013-04-17 12:03:00,59.0,-99.9,30.29,North,10,8.0,11.0,-999,-99.99,,,-99.99,,2013-04-17 19:03:00,
2013-04-17 12:12:00,-999.0,-99.9,30.29,North,8,12.0,14.0,-999,-99.99,,,-99.99,,2013-04-17 19:12:00,
2013-04-17 12:22:00,60.0,-99.9,30.29,NNE,20,13.0,15.0,-999,-99.99,,,-99.99,,2013-04-17 19:22:00,
2013-04-17 12:32:00,60.0,-99.9,30.29,NNE,25,11.0,13.0,-999,-99.99,,,-99.99,,2013-04-17 19:32:00,
2013-04-17 12:42:00,60.0,-99.9,30.29,North,-999,-999.0,-999.0,-999,-99.99,,,-99.99,,2013-04-17 19:42:00,
2013-04-17 12:52:00,59.0,-99.9,30.28,WNW,287,13.0,18.0,-999,-99.99,,,-99.99,,2013-04-17 19:52:00,
2013-04-17 13:03:00,58.0,-99.9,30.28,WSW,252,15.0,20.0,-999,-99.99,,,-99.99,,2013-04-17 20:03:00,
2013-04-17 13:12:00,58.0,-99.9,30.28,WSW,246,6.0,17.0,-999,-99.99,,,-99.99,,2013-04-17 20:12:00,
2013-04-17 13:22:00,-999.0,-99.9,30.28,WSW,248,11.0,14.0,-999,-99.99,,,-99.99,,2013-04-17 20:22:00,
2013-04-17 13:33:00,56.0,-99.9,30.28,West,265,11.0,15.0,-999,-99.99,,,-99.99,,2013-04-17 20:33:00,
2013-04-17 13:42:00,57.0,-99.9,30.27,WSW,237,11.0,15.0,-999,-99.99,,,-99.99,,2013-04-17 20:42:00,
2013-04-17 13:53:00,57.0,-99.9,30.27,WSW,255,10.0,14.0,-999,-99.99,,,-99.99,,2013-04-17 20:53:00,
2013-04-17 14:03:00,59.0,-99.9,30.27,SW,226,11.0,15.0,-999,-99.99,,,-99.99,,2013-04-17 21:03:00,
2013-04-17 14:13:00,58.0,-99.9,30.27,WSW,256,13.0,17.0,-999,-99.99,,,-99.99,,2013-04-17 21:13:00,
2013-04-17 14:22:00,57.0,-99.9,30.26,WSW,241,11.0,16.0,-999,-99.99,,,-99.99,,2013-04-17 21:22:00,
2013-04-17 14:33:00,58.0,-99.9,30.26,West,261,14.0,18.0,-999,-99.99,,,-99.99,,2013-04-17 21:33:00,
2013-04-17 14:43:00,-999.0,-99.9,30.26,West,263,11.0,24.0,-999,-99.99,,,-99.99,,2013-04-17 21:43:00,
2013-04-17 14:53:00,-999.0,-99.9,30.25,West,262,11.0,18.0,-999,-99.99,,,-99.99,,2013-04-17 21:53:00,
2013-04-17 15:02:00,-999.0,-99.9,30.25,WSW,254,15.0,20.0,-999,-99.99,,,-99.99,,2013-04-17 22:02:00,
2013-04-17 15:13:00,-999.0,-99.9,30.25,WSW,238,14.0,18.0,-999,-99.99,,,-99.99,,2013-04-17 22:13:00,
2013-04-17 15:22:00,58.0,-99.9,30.24,West,265,13.0,18.0,-999,-99.99,,,-99.99,,2013-04-17 22:22:00,
2013-04-17 15:33:00,58.0,-99.9,30.24,WSW,255,13.0,18.0,-999,-99.99,,,-99.99,,2013-04-17 22:33:00,
2013-04-17 15:43:00,57.0,-99.9,30.24,West,268,14.0,22.0,-999,-99.99,,,-99.99,,2013-04-17 22:43:00,
2013-04-17 15:53:00,57.0,-99.9,30.23,North,-999,-999.0,-999.0,-999,-99.99,,,-99.99,,2013-04-17 22:53:00,
2013-04-17 16:02:00,58.0,-99.9,30.22,West,268,12.0,21.0,-999,-99.99,,,-99.99,,2013-04-17 23:02:00,
2013-04-17 16:12:00,58.0,-99.9,30.22,WSW,258,12.0,18.0,-999,-99.99,,,-99.99,,2013-04-17 23:12:00,
2013-04-17 16:22:00,58.0,-99.9,30.22,WSW,251,11.0,18.0,-999,-99.99,,,-99.99,,2013-04-17 23:22:00,
2013-04-17 16:32:00,57.0,-99.9,30.22,West,260,13.0,19.0,-999,-99.99,,,-99.99,,2013-04-17 23:32:00,
2013-04-17 16:42:00,57.0,-99.9,30.22,WSW,249,10.0,16.0,-999,-99.99,,,-99.99,,2013-04-17 23:42:00,
2013-04-17 17:02:00,56.0,-99.9,30.21,SW,230,11.0,18.0,-999,-99.99,,,-99.99,,2013-04-18 00:02:00,
2013-04-17 17:12:00,56.0,-99.9,30.21,SW,229,14.0,19.0,-999,-99.99,,,-99.99,,2013-04-18 00:12:00,
2013-04-17 17:22:00,57.0,-99.9,30.21,WSW,241,12.0,17.0,-999,-99.99,,,-99.99,,2013-04-18 00:22:00,
2013-04-17 17:32:00,58.0,-99.9,30.21,WSW,239,11.0,15.0,-999,-99.99,,,-99.99,,2013-04-18 00:32:00,
2013-04-17 17:43:00,58.0,-99.9,30.21,WSW,256,9.0,16.0,-999,-99.99,,,-99.99,,2013-04-18 00:43:00,
2013-04-17 17:52:00,-999.0,-99.9,30.21,WSW,243,10.0,14.0,-999,-99.99,,,-99.99,,2013-04-18 00:52:00,
2013-04-17 18:02:00,57.0,-99.9,30.21,WSW,239,12.0,16.0,-999,-99.99,,,-99.99,,2013-04-18 01:02:00,
2013-04-17 18:12:00,57.0,-99.9,30.21,WSW,237,13.0,18.0,-999,-99.99,,,-99.99,,2013-04-18 01:12:00,
2013-04-17 18:22:00,56.0,-99.9,30.21,WSW,240,10.0,19.0,-999,-99.99,,,-99.99,,2013-04-18 01:22:00,
2013-04-17 18:32:00,56.0,-99.9,30.21,SW,235,9.0,16.0,-999,-99.99,,,-99.99,,2013-04-18 01:32:00,
2013-04-17 18:42:00,56.0,-99.9,30.21,SW,234,11.0,18.0,-999,-99.99,,,-99.99,,2013-04-18 01:42:00,
2013-04-17 18:52:00,55.0,-99.9,30.21,SW,232,11.0,16.0,-999,-99.99,,,-99.99,,2013-04-18 01:52:00,
2013-04-17 19:02:00,55.0,-99.9,30.21,SW,230,11.0,15.0,-999,-99.99,,,-99.99,,2013-04-18 02:02:00,
2013-04-17 19:12:00,54.0,-99.9,30.21,SW,220,12.0,16.0,-999,-99.99,,,-99.99,,2013-04-18 02:12:00,
2013-04-17 19:22:00,54.0,-99.9,30.21,SSW,211,15.0,17.0,-999,-99.99,,,-99.99,,2013-04-18 02:22:00,
2013-04-17 19:32:00,-999.0,-99.9,30.21,SW,227,15.0,18.0,-999,-99.99,,,-99.99,,2013-04-18 02:32:00,
2013-04-17 19:42:00,-999.0,-99.9,30.21,SW,227,15.0,18.0,-999,-99.99,,,-99.99,,2013-04-18 02:42:00,
2013-04-17 19:52:00,-999.0,-99.9,30.21,SW,227,15.0,18.0,-999,-99.99,,,-99.99,,2013-04-18 02:52:00,
2013-04-17 20:02:00,53.0,-99.9,30.21,WSW,249,15.0,19.0,-999,-99.99,,,-99.99,,2013-04-18 03:02:00,
2013-04-17 20:12:00,53.0,-99.9,30.21,WSW,246,14.0,19.0,-999,-99.99,,,-99.99,,2013-04-18 03:12:00,
2013-04-17 20:22:00,53.0,-99.9,30.21,North,-999,-999.0,-999.0,-999,-99.99,,,-99.99,,2013-04-18 03:22:00,
2013-04-17 20:33:00,52.0,-99.9,30.21,WSW,243,16.0,19.0,-999,-99.99,,,-99.99,,2013-04-18 03:33:00,
2013-04-17 20:43:00,52.0,-99.9,30.21,WSW,245,17.0,21.0,-999,-99.99,,,-99.99,,2013-04-18 03:43:00,
2013-04-17 20:53:00,52.0,-99.9,30.22,WSW,244,14.0,18.0,-999,-99.99,,,-99.99,,2013-04-18 03:53:00,
2013-04-17 21:03:00,52.0,-99.9,30.22,SW,228,11.0,15.0,-999,-99.99,,,-99.99,,2013-04-18 04:03:00,
2013-04-17 21:13:00,-999.0,-99.9,30.22,SW,224,12.0,15.0,-999,-99.99,,,-99.99,,2013-04-18 04:13:00,
2013-04-17 21:23:00,53.0,-99.9,30.23,SW,224,11.0,14.0,-999,-99.99,,,-99.99,,2013-04-18 04:23:00,
2013-04-17 21:33:00,-999.0,-99.9,30.23,SW,220,7.0,13.0,-999,-99.99,,,-99.99,,2013-04-18 04:33:00,
2013-04-17 21:43:00,53.0,-99.9,30.23,SW,231,9.0,13.0,-999,-99.99,,,-99.99,,2013-04-18 04:43:00,
2013-04-17 21:53:00,52.0,-99.9,30.24,SW,227,9.0,12.0,-999,-99.99,,,-99.99,,2013-04-18 04:53:00,
2013-04-17 22:02:00,52.0,-99.9,30.24,SW,225,7.0,14.0,-999,-99.99,,,-99.99,,2013-04-18 05:02:00,
2013-04-17 22:12:00,52.0,-99.9,30.24,SW,228,7.0,12.0,-999,-99.99,,,-99.99,,2013-04-18 05:12:00,
2013-04-17 22:22:00,52.0,-99.9,30.25,North,-999,-999.0,-999.0,-999,-99.99,,,-99.99,,2013-04-18 05:22:00,
2013-04-17 22:33:00,51.0,-99.9,30.25,West,261,4.0,7.0,-999,-99.99,,,-99.99,,2013-04-18 05:33:00,
2013-04-17 22:42:00,51.0,-99.9,30.25,WSW,243,2.0,7.0,-999,-99.99,,,-99.99,,2013-04-18 05:42:00,
2013-04-17 22:52:00,51.0,-99.9,30.25,WSW,242,2.0,5.0,-999,-99.99,,,-99.99,,2013-04-18 05:52:00,
2013-04-17 23:02:00,51.0,-99.9,30.24,SW,223,4.0,9.0,-999,-99.99,,,-99.99,,2013-04-18 06:02:00,
2013-04-17 23:12:00,51.0,-99.9,30.24,WSW,247,5.0,9.0,-999,-99.99,,,-99.99,,2013-04-18 06:12:00,
2013-04-17 23:22:00,51.0,-99.9,30.24,SSW,194,1.0,4.0,-999,-99.99,,,-99.99,,2013-04-18 06:22:00,
2013-04-17 23:32:00,50.0,-99.9,30.24,SW,225,3.0,6.0,-999,-99.99,,,-99.99,,2013-04-18 06:32:00,
2013-04-17 23:42:00,50.0,-99.9,30.24,SSW,213,3.0,4.0,-999,-99.99,,,-99.99,,2013-04-18 06:42:00,
2013-04-17 23:52:00,50.0,-99.9,30.24,SW,227,2.0,4.0,-999,-99.99,,,-99.99,,2013-04-18 06:52:00,